Time;durP1;ratioP1;P1;durP2;ratioP2;P2;SDS_P1;SDS_P2;PMS_P1;PMS_P2;Temp;Humidity;BMP_temperature;BMP_pressure;BME280_temperature;BME280_humidity;BME280_pressure;Samples;Min_cycle;Max_cycle;Signal;HPM_P1;HPM_P2
2021/07/08 00:01:56;;;;;;;;;;;16.40;99.90;;;;;;5088724;28;20016;-71
2021/07/08 00:04:23;;;;;;;;;;;16.40;99.90;;;;;;5097529;28;19952;-71
2021/07/08 00:06:50;;;;;;;;;;;16.40;99.90;;;;;;5093925;28;20021;-71
2021/07/08 00:09:16;;;;;;;;;;;16.40;99.90;;;;;;5096439;28;20375;-71
2021/07/08 00:11:43;;;;;;;;;;;16.40;99.90;;;;;;5082749;28;20400;-70
2021/07/08 00:14:10;;;;;;;;;;;16.30;99.90;;;;;;5092866;28;19970;-70
2021/07/08 00:16:36;;;;;;;;;;;16.30;99.90;;;;;;5090128;28;19995;-70
2021/07/08 00:19:07;;;;;;;;;;;16.30;99.90;;;;;;5084878;28;19947;-70
2021/07/08 00:21:33;;;;;;;;;;;16.30;99.90;;;;;;5090253;28;19980;-70
2021/07/08 00:24:00;;;;;;;;;;;16.30;99.90;;;;;;5097892;28;20006;-71
2021/07/08 00:26:26;;;;;;;;;;;16.20;99.90;;;;;;5086736;28;20470;-71
2021/07/08 00:28:53;;;;;;;;;;;16.20;99.90;;;;;;5092903;28;19941;-71
2021/07/08 00:31:20;;;;;;;;;;;16.20;99.90;;;;;;5086459;28;20371;-71
2021/07/08 00:33:47;;;;;;;;;;;16.20;99.90;;;;;;5090579;28;20036;-70
2021/07/08 00:36:14;;;;;;;;;;;16.10;99.90;;;;;;5090192;28;20055;-70
2021/07/08 00:38:41;;;;;;;;;;;16.10;99.90;;;;;;5089341;28;20430;-70
2021/07/08 00:41:07;;;;;;;;;;;16.10;99.90;;;;;;5085362;28;20357;-70
2021/07/08 00:43:41;;;;;;;;;;;16.10;99.90;;;;;;5096994;28;20007;-70
2021/07/08 00:46:08;;;;;;;;;;;16.10;99.90;;;;;;5087556;28;20017;-70
2021/07/08 00:48:35;;;;;;;;;;;16.00;99.90;;;;;;5088994;28;21464;-70
2021/07/08 00:51:01;;;;;;;;;;;16.00;99.90;;;;;;5106558;27;20016;-70
2021/07/08 00:53:28;;;;;;;;;;;16.00;99.90;;;;;;5104090;27;20355;-70
2021/07/08 00:55:58;;;;;;;;;;;16.00;99.90;;;;;;5073123;28;20004;-70
2021/07/08 00:58:25;;;;;;;;;;;16.00;99.90;;;;;;5097381;28;20302;-71
2021/07/08 01:00:52;;;;;;;;;;;16.00;99.90;;;;;;5104846;28;20349;-70
2021/07/08 01:03:20;;;;;;;;;;;16.00;99.90;;;;;;5095545;28;20498;-72
2021/07/08 01:05:48;;;;;;;;;;;16.00;99.90;;;;;;5093942;28;20051;-70
2021/07/08 01:08:15;;;;;;;;;;;16.00;99.90;;;;;;5092123;28;20370;-71
2021/07/08 01:10:42;;;;;;;;;;;15.90;99.90;;;;;;5074055;28;19989;-71
2021/07/08 01:13:10;;;;;;;;;;;15.90;99.90;;;;;;5085814;28;20039;-71
2021/07/08 01:15:37;;;;;;;;;;;15.90;99.90;;;;;;5094569;27;19959;-70
2021/07/08 01:18:04;;;;;;;;;;;15.90;99.90;;;;;;5085203;28;19965;-70
2021/07/08 01:20:31;;;;;;;;;;;15.90;99.90;;;;;;5088201;28;19963;-70
2021/07/08 01:22:58;;;;;;;;;;;15.90;99.90;;;;;;5088076;28;20455;-70
2021/07/08 01:25:26;;;;;;;;;;;15.90;99.90;;;;;;5093245;28;20392;-70
2021/07/08 01:27:53;;;;;;;;;;;15.90;99.90;;;;;;5095188;28;20014;-70
2021/07/08 01:30:20;;;;;;;;;;;15.90;99.90;;;;;;5106495;27;20006;-70
2021/07/08 01:32:47;;;;;;;;;;;15.90;99.90;;;;;;5075654;28;20007;-71
2021/07/08 01:35:15;;;;;;;;;;;15.90;99.90;;;;;;5099344;28;20259;-70
2021/07/08 01:37:42;;;;;;;;;;;15.90;99.90;;;;;;5078253;28;20001;-71
2021/07/08 01:40:10;;;;;;;;;;;15.90;99.90;;;;;;5080109;28;20014;-70
2021/07/08 01:42:37;;;;;;;;;;;15.90;99.90;;;;;;5063573;28;20472;-70
2021/07/08 01:45:05;;;;;;;;;;;15.90;99.90;;;;;;5087888;28;20403;-71
2021/07/08 01:47:31;;;;;;;;;;;15.90;99.90;;;;;;5084739;28;20060;-71
2021/07/08 01:49:58;;;;;;;;;;;15.90;99.90;;;;;;5086699;28;20365;-70
2021/07/08 01:52:25;;;;;;;;;;;15.90;99.90;;;;;;5086672;28;20008;-70
2021/07/08 01:54:52;;;;;;;;;;;15.90;99.90;;;;;;5094450;28;20374;-70
2021/07/08 01:57:19;;;;;;;;;;;15.90;99.90;;;;;;5075030;28;19956;-70
2021/07/08 01:59:45;;;;;;;;;;;15.90;99.90;;;;;;5093077;28;20034;-70
2021/07/08 02:02:12;;;;;;;;;;;15.90;99.90;;;;;;5087685;28;20042;-70
2021/07/08 02:04:39;;;;;;;;;;;15.90;99.90;;;;;;5078809;28;20428;-70
2021/07/08 02:07:05;;;;;;;;;;;15.90;99.90;;;;;;5092492;28;20033;-70
2021/07/08 02:09:32;;;;;;;;;;;15.90;99.90;;;;;;5079239;28;19960;-70
2021/07/08 02:11:59;;;;;;;;;;;15.90;99.90;;;;;;5086755;28;20074;-70
2021/07/08 02:14:26;;;;;;;;;;;15.90;99.90;;;;;;5093346;28;20294;-70
2021/07/08 02:16:53;;;;;;;;;;;15.90;99.90;;;;;;5092506;28;20012;-70
2021/07/08 02:19:20;;;;;;;;;;;15.90;99.90;;;;;;5101730;28;19954;-70
2021/07/08 02:21:47;;;;;;;;;;;15.90;99.90;;;;;;5090283;28;19962;-71
2021/07/08 02:24:14;;;;;;;;;;;15.90;99.90;;;;;;5098390;28;20011;-71
2021/07/08 02:26:41;;;;;;;;;;;15.80;99.90;;;;;;5093506;28;20460;-70
2021/07/08 02:29:09;;;;;;;;;;;15.80;99.90;;;;;;5108343;28;19985;-70
2021/07/08 02:31:36;;;;;;;;;;;15.70;99.90;;;;;;5093442;28;20023;-70
2021/07/08 02:34:03;;;;;;;;;;;15.60;99.90;;;;;;5086608;28;20429;-70
2021/07/08 02:36:30;;;;;;;;;;;15.60;99.90;;;;;;5088474;28;20430;-71
2021/07/08 02:38:56;;;;;;;;;;;15.60;99.90;;;;;;5074376;28;20021;-70
2021/07/08 02:41:23;;;;;;;;;;;15.60;99.90;;;;;;5081392;28;20513;-70
2021/07/08 02:43:50;;;;;;;;;;;15.60;99.90;;;;;;5090298;28;20058;-71
2021/07/08 02:46:17;;;;;;;;;;;15.60;99.90;;;;;;5091444;28;19983;-70
2021/07/08 02:48:44;;;;;;;;;;;15.60;99.90;;;;;;5097429;28;20025;-70
2021/07/08 02:51:11;;;;;;;;;;;15.70;99.90;;;;;;5090030;28;20412;-71
2021/07/08 02:53:37;;;;;;;;;;;15.70;99.90;;;;;;5112310;27;19951;-70
2021/07/08 02:56:04;;;;;;;;;;;15.70;99.90;;;;;;5099761;28;19964;-70
2021/07/08 02:58:31;;;;;;;;;;;15.70;99.90;;;;;;5100928;28;20003;-70
2021/07/08 03:00:57;;;;;;;;;;;15.70;99.90;;;;;;5096885;28;20356;-71
2021/07/08 03:03:24;;;;;;;;;;;15.70;99.90;;;;;;5094984;28;20331;-70
2021/07/08 03:05:51;;;;;;;;;;;15.70;99.90;;;;;;5094788;28;19997;-70
2021/07/08 03:08:17;;;;;;;;;;;15.70;99.90;;;;;;5087874;28;20438;-71
2021/07/08 03:10:44;;;;;;;;;;;15.70;99.90;;;;;;5100040;28;20506;-70
2021/07/08 03:13:11;;;;;;;;;;;15.60;99.90;;;;;;5101542;27;20491;-70
2021/07/08 03:15:38;;;;;;;;;;;15.60;99.90;;;;;;5104686;28;20018;-71
2021/07/08 03:18:04;;;;;;;;;;;15.50;99.90;;;;;;5089218;28;20405;-70
2021/07/08 03:20:34;;;;;;;;;;;15.50;99.90;;;;;;5094047;28;20408;-71
2021/07/08 03:23:02;;;;;;;;;;;15.50;99.90;;;;;;5094855;28;19988;-70
2021/07/08 03:25:29;;;;;;;;;;;15.40;99.90;;;;;;5092994;28;19967;-70
2021/07/08 03:27:57;;;;;;;;;;;15.40;99.90;;;;;;5099108;28;20023;-70
2021/07/08 03:30:24;;;;;;;;;;;15.40;99.90;;;;;;5092341;28;20010;-70
2021/07/08 03:32:51;;;;;;;;;;;15.40;99.90;;;;;;5093591;28;20003;-71
2021/07/08 03:35:22;;;;;;;;;;;15.40;99.90;;;;;;5079443;28;19971;-70
2021/07/08 03:37:49;;;;;;;;;;;15.40;99.90;;;;;;5079536;28;20075;-70
2021/07/08 03:40:16;;;;;;;;;;;15.30;99.90;;;;;;5075115;28;20018;-71
2021/07/08 03:42:44;;;;;;;;;;;15.30;99.90;;;;;;5076314;28;20254;-70
2021/07/08 03:45:11;;;;;;;;;;;15.30;99.90;;;;;;5097466;28;19962;-70
2021/07/08 03:47:38;;;;;;;;;;;15.30;99.90;;;;;;5092591;28;20010;-70
2021/07/08 03:50:06;;;;;;;;;;;15.30;99.90;;;;;;5098920;28;20047;-70
2021/07/08 03:52:32;;;;;;;;;;;15.30;99.90;;;;;;5092950;28;20039;-70
2021/07/08 03:54:59;;;;;;;;;;;15.30;99.90;;;;;;5080336;28;20036;-70
2021/07/08 03:57:26;;;;;;;;;;;15.30;99.90;;;;;;5095205;28;19959;-71
2021/07/08 03:59:52;;;;;;;;;;;15.30;99.90;;;;;;5081380;28;20031;-70
2021/07/08 04:02:19;;;;;;;;;;;15.30;99.90;;;;;;5095495;28;19971;-70
2021/07/08 04:04:46;;;;;;;;;;;15.30;99.90;;;;;;5095257;28;20303;-70
2021/07/08 04:07:12;;;;;;;;;;;15.30;99.90;;;;;;5082303;28;20342;-70
2021/07/08 04:09:39;;;;;;;;;;;15.30;99.90;;;;;;5090908;28;19965;-71
2021/07/08 04:12:06;;;;;;;;;;;15.30;99.90;;;;;;5067137;28;20032;-71
2021/07/08 04:14:33;;;;;;;;;;;15.30;99.90;;;;;;5086056;28;19968;-72
2021/07/08 04:16:59;;;;;;;;;;;15.30;99.90;;;;;;5071577;28;19960;-70
2021/07/08 04:19:26;;;;;;;;;;;15.30;99.90;;;;;;5082298;28;19959;-71
2021/07/08 04:21:53;;;;;;;;;;;15.30;99.90;;;;;;5062535;28;20018;-71
2021/07/08 04:24:20;;;;;;;;;;;15.30;99.90;;;;;;5084763;28;20018;-70
2021/07/08 04:26:46;;;;;;;;;;;15.30;99.90;;;;;;5084606;28;20393;-70
2021/07/08 04:29:13;;;;;;;;;;;15.30;99.90;;;;;;5091539;28;20010;-70
2021/07/08 04:31:40;;;;;;;;;;;15.30;99.90;;;;;;5084598;28;20010;-70
2021/07/08 04:34:06;;;;;;;;;;;15.30;99.90;;;;;;5097419;28;19987;-70
2021/07/08 04:36:33;;;;;;;;;;;15.30;99.90;;;;;;5082688;28;20014;-70
2021/07/08 04:39:00;;;;;;;;;;;15.40;99.90;;;;;;5066389;28;19956;-70
2021/07/08 04:41:27;;;;;;;;;;;15.40;99.90;;;;;;5086988;28;19970;-70
2021/07/08 04:43:53;;;;;;;;;;;15.40;99.90;;;;;;5095715;28;19982;-70
2021/07/08 04:46:20;;;;;;;;;;;15.40;99.90;;;;;;5091450;28;19972;-70
2021/07/08 04:48:47;;;;;;;;;;;15.40;99.90;;;;;;5070930;28;20024;-70
2021/07/08 04:51:13;;;;;;;;;;;15.40;99.90;;;;;;5063216;28;19962;-71
2021/07/08 04:53:42;;;;;;;;;;;15.50;99.90;;;;;;5095314;28;20017;-70
2021/07/08 04:56:08;;;;;;;;;;;15.50;99.90;;;;;;5096096;28;20387;-70
2021/07/08 04:58:35;;;;;;;;;;;15.50;99.90;;;;;;5090307;28;20440;-70
2021/07/08 05:01:02;;;;;;;;;;;15.50;99.90;;;;;;5070363;28;20020;-70
2021/07/08 05:03:28;;;;;;;;;;;15.50;99.90;;;;;;5075161;28;20027;-71
2021/07/08 05:05:55;;;;;;;;;;;15.50;99.90;;;;;;5092872;28;20260;-70
2021/07/08 05:08:22;;;;;;;;;;;15.60;99.90;;;;;;5102495;28;20009;-71
2021/07/08 05:10:48;;;;;;;;;;;15.60;99.90;;;;;;5034851;28;1739272;-70
2021/07/08 05:13:15;;;;;;;;;;;15.60;99.90;;;;;;5087596;28;19985;-71
2021/07/08 05:15:42;;;;;;;;;;;15.60;99.90;;;;;;5062614;28;20450;-71
2021/07/08 05:18:09;;;;;;;;;;;15.70;99.90;;;;;;5059794;28;19954;-71
2021/07/08 05:20:37;;;;;;;;;;;15.70;99.90;;;;;;5080682;28;20080;-71
2021/07/08 05:23:13;;;;;;;;;;;15.70;99.90;;;;;;5078620;28;19952;-72
2021/07/08 05:25:39;;;;;;;;;;;15.80;99.90;;;;;;5076512;28;20008;-71
2021/07/08 05:28:06;;;;;;;;;;;15.80;99.90;;;;;;5075841;28;20412;-71
2021/07/08 05:30:33;;;;;;;;;;;15.80;99.90;;;;;;5084140;28;20642;-71
2021/07/08 05:32:59;;;;;;;;;;;15.90;99.90;;;;;;5076786;28;19998;-71
2021/07/08 05:35:26;;;;;;;;;;;15.90;99.90;;;;;;5095886;28;20538;-71
2021/07/08 05:37:53;;;;;;;;;;;15.90;99.90;;;;;;5088943;28;20485;-72
2021/07/08 05:40:20;;;;;;;;;;;16.00;99.90;;;;;;5086736;28;20026;-71
2021/07/08 05:42:46;;;;;;;;;;;16.00;99.90;;;;;;5092933;28;19988;-71
2021/07/08 05:45:13;;;;;;;;;;;16.10;99.90;;;;;;5073276;28;19963;-71
2021/07/08 05:47:40;;;;;;;;;;;16.10;99.90;;;;;;5070283;28;19980;-71
2021/07/08 05:50:07;;;;;;;;;;;16.10;99.90;;;;;;5110080;28;19956;-71
2021/07/08 05:52:34;;;;;;;;;;;16.20;99.90;;;;;;5061901;28;19998;-72
2021/07/08 05:55:00;;;;;;;;;;;16.20;99.90;;;;;;5095326;28;20512;-71
2021/07/08 05:57:27;;;;;;;;;;;16.20;99.90;;;;;;5094844;28;20529;-71
2021/07/08 05:59:56;;;;;;;;;;;16.20;99.90;;;;;;5104951;28;19966;-71
2021/07/08 06:02:23;;;;;;;;;;;16.30;99.90;;;;;;5076879;28;20009;-71
2021/07/08 06:04:50;;;;;;;;;;;16.30;99.90;;;;;;5102602;28;20002;-71
2021/07/08 06:07:17;;;;;;;;;;;16.40;99.90;;;;;;5100448;28;20013;-71
2021/07/08 06:09:43;;;;;;;;;;;16.50;99.90;;;;;;5098822;28;19951;-71
2021/07/08 06:12:10;;;;;;;;;;;16.60;99.90;;;;;;5099436;28;20014;-71
2021/07/08 06:14:37;;;;;;;;;;;16.80;99.90;;;;;;5092200;28;20377;-71
2021/07/08 06:17:06;;;;;;;;;;;16.90;99.90;;;;;;5099134;28;20474;-71
2021/07/08 06:19:33;;;;;;;;;;;17.20;99.90;;;;;;5100485;28;19947;-71
2021/07/08 06:22:00;;;;;;;;;;;17.30;99.90;;;;;;5071584;28;19946;-71
2021/07/08 06:24:26;;;;;;;;;;;17.50;99.90;;;;;;5103953;28;20008;-71
2021/07/08 06:26:53;;;;;;;;;;;17.60;99.90;;;;;;5097281;28;20418;-71
2021/07/08 06:29:19;;;;;;;;;;;17.80;99.90;;;;;;5109796;28;19953;-71
2021/07/08 06:31:46;;;;;;;;;;;17.90;99.90;;;;;;5099629;28;19993;-71
2021/07/08 06:34:13;;;;;;;;;;;18.10;99.90;;;;;;5112257;28;19943;-71
2021/07/08 06:36:39;;;;;;;;;;;18.20;99.90;;;;;;5105690;28;19994;-71
2021/07/08 06:39:06;;;;;;;;;;;18.30;99.90;;;;;;5093550;28;20043;-71
2021/07/08 06:41:33;;;;;;;;;;;18.40;99.90;;;;;;5094096;28;19978;-71
2021/07/08 06:44:00;;;;;;;;;;;18.50;99.90;;;;;;5098134;28;19956;-71
2021/07/08 06:46:28;;;;;;;;;;;18.60;99.90;;;;;;5106837;28;20563;-71
2021/07/08 06:48:55;;;;;;;;;;;18.70;99.90;;;;;;5100193;28;20319;-71
2021/07/08 06:51:22;;;;;;;;;;;18.80;99.90;;;;;;5096681;28;21116;-71
2021/07/08 06:53:54;;;;;;;;;;;18.80;99.90;;;;;;5099711;28;19990;-71
2021/07/08 06:56:20;;;;;;;;;;;18.90;99.90;;;;;;5070900;28;19939;-71
2021/07/08 06:58:48;;;;;;;;;;;19.00;99.90;;;;;;5108439;28;19974;-71
2021/07/08 07:01:16;;;;;;;;;;;19.10;99.90;;;;;;5090940;28;20288;-72
2021/07/08 07:03:42;;;;;;;;;;;19.20;99.90;;;;;;5104765;28;19928;-71
2021/07/08 07:06:09;;;;;;;;;;;19.20;99.90;;;;;;5101091;28;19967;-71
2021/07/08 07:08:39;;;;;;;;;;;19.30;99.90;;;;;;5107196;28;19940;-71
2021/07/08 07:11:06;;;;;;;;;;;19.40;99.90;;;;;;5081315;28;19978;-71
2021/07/08 07:13:33;;;;;;;;;;;19.40;99.90;;;;;;5098826;28;20010;-71
2021/07/08 07:15:59;;;;;;;;;;;19.40;99.90;;;;;;5100146;28;20434;-71
2021/07/08 07:18:28;;;;;;;;;;;19.40;99.90;;;;;;5108126;28;19928;-71
2021/07/08 07:20:54;;;;;;;;;;;19.40;99.90;;;;;;5110185;28;19923;-71
2021/07/08 07:23:21;;;;;;;;;;;19.50;99.90;;;;;;5076876;28;19924;-71
2021/07/08 07:25:48;;;;;;;;;;;19.50;99.90;;;;;;5098855;28;19924;-71
2021/07/08 07:28:15;;;;;;;;;;;19.50;99.90;;;;;;5093041;28;19973;-71
2021/07/08 07:30:41;;;;;;;;;;;19.50;99.90;;;;;;5097472;28;19924;-71
2021/07/08 07:33:08;;;;;;;;;;;19.50;99.90;;;;;;5095699;28;19977;-71
2021/07/08 07:35:35;;;;;;;;;;;19.50;99.90;;;;;;5099759;28;20840;-71
2021/07/08 07:38:05;;;;;;;;;;;19.40;99.90;;;;;;5094045;28;19972;-71
2021/07/08 07:40:32;;;;;;;;;;;19.40;99.90;;;;;;5095932;28;19976;-71
2021/07/08 07:42:58;;;;;;;;;;;19.40;99.90;;;;;;5101966;28;20329;-71
2021/07/08 07:45:25;;;;;;;;;;;19.30;99.90;;;;;;5081821;28;19974;-71
2021/07/08 07:47:52;;;;;;;;;;;19.30;99.90;;;;;;5076227;28;20322;-71
2021/07/08 07:50:20;;;;;;;;;;;19.30;99.90;;;;;;5099777;28;19950;-71
2021/07/08 07:52:47;;;;;;;;;;;19.30;99.90;;;;;;5087596;28;19975;-71
2021/07/08 07:55:15;;;;;;;;;;;19.30;99.90;;;;;;5104341;28;20054;-71
2021/07/08 07:57:42;;;;;;;;;;;19.30;99.90;;;;;;5090385;28;19928;-71
2021/07/08 08:00:09;;;;;;;;;;;19.30;99.90;;;;;;5111353;28;19938;-71
2021/07/08 08:02:36;;;;;;;;;;;19.40;99.90;;;;;;5097879;28;19960;-71
2021/07/08 08:10:20;;;;;;;;;;;19.30;99.90;;;;;;5099728;28;19939;-71
2021/07/08 08:12:47;;;;;;;;;;;19.40;99.90;;;;;;5095930;28;19971;-72
2021/07/08 08:15:15;;;;;;;;;;;19.40;99.90;;;;;;5095569;28;19999;-71
2021/07/08 08:17:42;;;;;;;;;;;19.50;99.90;;;;;;5105132;28;20427;-71
2021/07/08 08:20:12;;;;;;;;;;;19.60;99.90;;;;;;5099647;28;20456;-71
2021/07/08 08:22:40;;;;;;;;;;;19.70;99.90;;;;;;5095609;28;20400;-71
2021/07/08 08:25:07;;;;;;;;;;;19.80;99.90;;;;;;5100813;28;19924;-71
2021/07/08 08:27:34;;;;;;;;;;;19.80;99.90;;;;;;5103958;28;19945;-71
2021/07/08 08:30:01;;;;;;;;;;;19.90;99.90;;;;;;5108864;28;20006;-71
2021/07/08 08:32:27;;;;;;;;;;;20.00;99.90;;;;;;5103068;28;19928;-71
2021/07/08 08:34:54;;;;;;;;;;;20.10;99.90;;;;;;5100275;28;19924;-71
2021/07/08 08:37:21;;;;;;;;;;;20.10;99.90;;;;;;5065917;28;19985;-71
2021/07/08 08:39:48;;;;;;;;;;;20.20;99.90;;;;;;5090268;28;19963;-71
2021/07/08 08:42:14;;;;;;;;;;;20.20;99.90;;;;;;5086614;28;19964;-71
2021/07/08 08:44:41;;;;;;;;;;;20.20;99.90;;;;;;5102893;28;19967;-71
2021/07/08 08:47:09;;;;;;;;;;;20.10;99.90;;;;;;5088920;28;19924;-71
2021/07/08 08:49:40;;;;;;;;;;;20.10;99.90;;;;;;5087406;28;20043;-71
2021/07/08 08:52:08;;;;;;;;;;;20.10;99.90;;;;;;5085140;28;19928;-71
2021/07/08 08:54:35;;;;;;;;;;;20.10;99.90;;;;;;5090401;28;20004;-71
2021/07/08 08:57:02;;;;;;;;;;;20.00;99.90;;;;;;5087152;28;20041;-71
2021/07/08 08:59:29;;;;;;;;;;;20.10;99.90;;;;;;5069316;28;19967;-71
2021/07/08 09:02:08;;;;;;;;;;;20.20;99.90;;;;;;5069727;28;19982;-71
2021/07/08 09:04:35;;;;;;;;;;;20.20;99.90;;;;;;5100995;28;19997;-71
2021/07/08 09:07:21;;;;;;;;;;;20.30;99.90;;;;;;5095482;28;20008;-71
2021/07/08 09:09:49;;;;;;;;;;;20.30;99.90;;;;;;5099422;28;20354;-71
2021/07/08 09:12:19;;;;;;;;;;;20.30;99.90;;;;;;5097626;28;20431;-71
2021/07/08 09:14:45;;;;;;;;;;;20.30;99.90;;;;;;5095855;28;20011;-71
2021/07/08 09:17:16;;;;;;;;;;;20.30;99.90;;;;;;5092196;28;20315;-71
2021/07/08 09:19:43;;;;;;;;;;;20.20;99.90;;;;;;5077166;28;20042;-71
2021/07/08 09:22:10;;;;;;;;;;;20.20;99.90;;;;;;5091443;28;20351;-71
2021/07/08 09:24:36;;;;;;;;;;;20.20;99.90;;;;;;5100791;28;19924;-71
2021/07/08 09:27:08;;;;;;;;;;;20.10;99.90;;;;;;5102424;27;19983;-71
2021/07/08 09:29:39;;;;;;;;;;;20.10;99.90;;;;;;5103577;28;19945;-70
2021/07/08 09:32:11;;;;;;;;;;;20.10;99.90;;;;;;5092470;28;19944;-71
2021/07/08 09:34:39;;;;;;;;;;;20.10;99.90;;;;;;5104940;28;20398;-71
2021/07/08 09:37:08;;;;;;;;;;;20.20;99.90;;;;;;5083550;28;19950;-71
2021/07/08 09:39:37;;;;;;;;;;;20.20;99.90;;;;;;5094748;28;20249;-71
2021/07/08 09:42:04;;;;;;;;;;;20.30;99.90;;;;;;5086344;28;20380;-71
2021/07/08 09:44:31;;;;;;;;;;;20.30;99.90;;;;;;5095372;28;19952;-71
2021/07/08 09:46:58;;;;;;;;;;;20.40;99.90;;;;;;5087086;28;19971;-70
2021/07/08 09:49:26;;;;;;;;;;;20.40;99.90;;;;;;5091116;28;19925;-70
2021/07/08 09:51:53;;;;;;;;;;;20.50;99.90;;;;;;5089182;28;19967;-71
2021/07/08 09:54:43;;;;;;;;;;;20.50;99.90;;;;;;5095684;28;19935;-71
2021/07/08 09:57:30;;;;;;;;;;;20.60;99.90;;;;;;5070871;28;19924;-71
2021/07/08 09:59:56;;;;;;;;;;;20.60;99.90;;;;;;5100807;28;19970;-71
2021/07/08 10:02:31;;;;;;;;;;;20.70;99.90;;;;;;5103599;28;20028;-71
2021/07/08 10:04:58;;;;;;;;;;;20.80;99.90;;;;;;5099243;28;19923;-72
2021/07/08 10:07:25;;;;;;;;;;;20.80;99.90;;;;;;5088532;28;20347;-71
2021/07/08 10:09:52;;;;;;;;;;;20.90;99.90;;;;;;5075791;28;19931;-71
2021/07/08 10:12:18;;;;;;;;;;;20.90;99.90;;;;;;5107067;28;20153;-70
2021/07/08 10:14:46;;;;;;;;;;;21.00;99.90;;;;;;5090042;28;20411;-71
2021/07/08 10:17:15;;;;;;;;;;;21.00;99.90;;;;;;5099513;28;20319;-71
2021/07/08 10:19:43;;;;;;;;;;;21.10;99.90;;;;;;5083695;28;20405;-71
2021/07/08 10:22:10;;;;;;;;;;;21.10;99.90;;;;;;5100113;28;19964;-71
2021/07/08 10:24:37;;;;;;;;;;;21.20;99.90;;;;;;5099620;28;19959;-72
2021/07/08 10:27:06;;;;;;;;;;;21.30;99.90;;;;;;5103498;28;20009;-71
2021/07/08 10:29:39;;;;;;;;;;;21.40;99.90;;;;;;5110697;28;19923;-71
2021/07/08 10:32:07;;;;;;;;;;;21.40;99.90;;;;;;5102717;28;19924;-71
2021/07/08 10:34:44;;;;;;;;;;;21.50;99.90;;;;;;5100020;28;19932;-71
2021/07/08 10:37:20;;;;;;;;;;;21.50;99.90;;;;;;5083755;28;19994;-71
2021/07/08 10:39:46;;;;;;;;;;;21.50;99.90;;;;;;5091425;28;19970;-70
2021/07/08 10:42:33;;;;;;;;;;;21.60;99.90;;;;;;5094804;28;19969;-71
2021/07/08 10:45:00;;;;;;;;;;;21.60;99.90;;;;;;5103534;28;20367;-72
2021/07/08 10:47:33;;;;;;;;;;;21.70;99.90;;;;;;5087381;28;19969;-71
2021/07/08 10:50:00;;;;;;;;;;;21.70;99.90;;;;;;5089715;28;20332;-71
2021/07/08 10:52:39;;;;;;;;;;;21.70;99.90;;;;;;5093597;28;19932;-71
2021/07/08 10:55:06;;;;;;;;;;;21.80;99.90;;;;;;5088653;28;19977;-71
2021/07/08 10:57:34;;;;;;;;;;;21.80;99.90;;;;;;5101667;28;20366;-70
2021/07/08 11:00:01;;;;;;;;;;;21.90;99.90;;;;;;5085063;28;19927;-71
2021/07/08 11:02:44;;;;;;;;;;;21.90;99.90;;;;;;5100051;28;19957;-71
2021/07/08 11:05:11;;;;;;;;;;;21.90;99.90;;;;;;5096828;28;20708;-71
2021/07/08 11:07:45;;;;;;;;;;;22.00;99.90;;;;;;5073133;28;19928;-71
2021/07/08 11:10:13;;;;;;;;;;;22.00;99.90;;;;;;5082882;28;20447;-71
2021/07/08 11:12:40;;;;;;;;;;;22.10;99.90;;;;;;5086700;28;20425;-71
2021/07/08 11:15:07;;;;;;;;;;;22.00;99.90;;;;;;5100371;28;20496;-71
2021/07/08 11:17:39;;;;;;;;;;;21.90;99.90;;;;;;5095982;28;20354;-70
2021/07/08 11:20:29;;;;;;;;;;;21.90;99.90;;;;;;5071506;28;19924;-71
2021/07/08 11:22:56;;;;;;;;;;;21.80;99.90;;;;;;5092136;28;20345;-71
2021/07/08 11:25:40;;;;;;;;;;;21.80;99.90;;;;;;5093248;28;19979;-70
2021/07/08 11:28:26;;;;;;;;;;;21.80;99.90;;;;;;5102446;28;19923;-71
2021/07/08 11:31:02;;;;;;;;;;;21.80;99.90;;;;;;5097090;28;19928;-71
2021/07/08 11:33:31;;;;;;;;;;;21.90;99.90;;;;;;5073733;28;19925;-70
2021/07/08 11:36:01;;;;;;;;;;;21.90;99.90;;;;;;5100906;28;19959;-71
2021/07/08 11:38:33;;;;;;;;;;;21.90;99.90;;;;;;5084605;28;20270;-71
2021/07/08 11:41:01;;;;;;;;;;;22.00;99.90;;;;;;5095898;28;20424;-71
2021/07/08 11:43:30;;;;;;;;;;;22.00;99.90;;;;;;5096585;28;20359;-71
2021/07/08 11:46:04;;;;;;;;;;;22.10;99.90;;;;;;5101952;28;19931;-70
2021/07/08 11:48:33;;;;;;;;;;;22.10;99.90;;;;;;5102425;28;19932;-71
2021/07/08 11:51:01;;;;;;;;;;;22.20;99.90;;;;;;5100415;28;19939;-71
2021/07/08 11:53:28;;;;;;;;;;;22.20;99.90;;;;;;5095335;28;19981;-71
2021/07/08 11:55:56;;;;;;;;;;;22.20;99.90;;;;;;5104324;28;19936;-71
2021/07/08 11:58:33;;;;;;;;;;;22.20;99.90;;;;;;5071260;28;19937;-71
2021/07/08 12:01:07;;;;;;;;;;;22.20;99.90;;;;;;5088813;28;20013;-71
2021/07/08 12:03:43;;;;;;;;;;;22.20;99.90;;;;;;5095162;28;19967;-72
2021/07/08 12:06:10;;;;;;;;;;;22.20;99.90;;;;;;5095138;28;19971;-70
2021/07/08 12:08:38;;;;;;;;;;;22.20;99.90;;;;;;5109888;27;19963;-71
2021/07/08 12:11:10;;;;;;;;;;;22.20;99.90;;;;;;5097458;28;19955;-71
2021/07/08 12:13:47;;;;;;;;;;;22.20;99.90;;;;;;5094279;28;20318;-71
2021/07/08 12:16:15;;;;;;;;;;;22.30;99.90;;;;;;5105008;28;20328;-71
2021/07/08 12:18:43;;;;;;;;;;;22.30;99.90;;;;;;5101196;28;19924;-71
2021/07/08 12:21:22;;;;;;;;;;;22.30;99.90;;;;;;5107805;28;19927;-71
2021/07/08 12:23:49;;;;;;;;;;;22.40;99.90;;;;;;5100403;28;19924;-71
2021/07/08 12:26:25;;;;;;;;;;;22.40;99.90;;;;;;5085506;28;20012;-71
2021/07/08 12:29:10;;;;;;;;;;;22.50;99.90;;;;;;5095107;28;20543;-71
2021/07/08 12:32:00;;;;;;;;;;;22.50;99.90;;;;;;5094428;28;19970;-71
2021/07/08 12:34:36;;;;;;;;;;;22.50;99.90;;;;;;5091240;28;20399;-71
2021/07/08 12:37:10;;;;;;;;;;;22.50;99.90;;;;;;5086214;28;19932;-71
2021/07/08 12:39:36;;;;;;;;;;;22.50;99.90;;;;;;5093102;28;19927;-71
2021/07/08 12:42:03;;;;;;;;;;;22.50;99.90;;;;;;5066727;28;19997;-71
2021/07/08 12:44:30;;;;;;;;;;;22.40;99.90;;;;;;5097672;28;20015;-71
2021/07/08 12:46:56;;;;;;;;;;;22.30;99.90;;;;;;5097390;28;19968;-71
2021/07/08 12:49:24;;;;;;;;;;;22.30;99.90;;;;;;5092510;28;19924;-71
2021/07/08 12:51:50;;;;;;;;;;;22.30;99.90;;;;;;5081194;28;19924;-71
2021/07/08 12:54:18;;;;;;;;;;;22.30;99.90;;;;;;5112042;27;19928;-71
2021/07/08 12:57:04;;;;;;;;;;;22.40;99.90;;;;;;5085741;28;20375;-71
2021/07/08 12:59:31;;;;;;;;;;;22.40;99.90;;;;;;5086366;28;19947;-71
2021/07/08 13:01:58;;;;;;;;;;;22.40;99.90;;;;;;5095814;28;19998;-71
2021/07/08 13:04:32;;;;;;;;;;;22.50;99.90;;;;;;5096112;28;19925;-71
2021/07/08 13:06:59;;;;;;;;;;;22.50;99.90;;;;;;5092283;28;20016;-71
2021/07/08 13:09:26;;;;;;;;;;;22.60;99.90;;;;;;5102750;28;19971;-71
2021/07/08 13:11:53;;;;;;;;;;;22.70;99.90;;;;;;5092458;28;20000;-71
2021/07/08 13:14:21;;;;;;;;;;;22.80;99.90;;;;;;5088595;28;20401;-71
2021/07/08 13:17:20;;;;;;;;;;;22.80;99.90;;;;;;5074462;28;19964;-71
2021/07/08 13:19:48;;;;;;;;;;;22.90;99.90;;;;;;5056481;28;20069;-71
2021/07/08 13:22:16;;;;;;;;;;;23.00;99.90;;;;;;5078422;28;20489;-70
2021/07/08 13:24:43;;;;;;;;;;;23.00;99.90;;;;;;5098055;28;19990;-70
2021/07/08 13:27:10;;;;;;;;;;;23.00;99.90;;;;;;5083778;28;19964;-70
2021/07/08 13:29:37;;;;;;;;;;;22.90;99.90;;;;;;5095946;28;20406;-70
2021/07/08 13:32:17;;;;;;;;;;;22.90;99.90;;;;;;5070984;28;19924;-70
2021/07/08 13:34:45;;;;;;;;;;;22.90;99.90;;;;;;5102466;28;19963;-70
2021/07/08 13:37:19;;;;;;;;;;;22.80;99.90;;;;;;5077881;28;19924;-70
2021/07/08 13:39:46;;;;;;;;;;;22.80;99.90;;;;;;5081272;28;20362;-70
2021/07/08 13:42:12;;;;;;;;;;;22.90;99.90;;;;;;5096215;28;19924;-70
2021/07/08 13:44:40;;;;;;;;;;;22.90;99.90;;;;;;5098323;28;19939;-71
2021/07/08 13:47:07;;;;;;;;;;;23.00;99.90;;;;;;5091337;28;20013;-71
2021/07/08 13:49:35;;;;;;;;;;;23.00;99.90;;;;;;5106089;28;19930;-71
2021/07/08 13:52:06;;;;;;;;;;;23.00;99.90;;;;;;5092799;28;19963;-72
2021/07/08 13:54:35;;;;;;;;;;;23.00;99.90;;;;;;5084696;28;19977;-72
2021/07/08 13:57:04;;;;;;;;;;;22.90;99.90;;;;;;5098689;28;20014;-72
2021/07/08 13:59:31;;;;;;;;;;;22.90;99.90;;;;;;5087775;28;19980;-71
2021/07/08 14:02:00;;;;;;;;;;;22.80;99.90;;;;;;5101643;28;19978;-72
2021/07/08 14:04:27;;;;;;;;;;;22.80;99.90;;;;;;5096468;28;19963;-71
2021/07/08 14:06:54;;;;;;;;;;;22.80;99.90;;;;;;5083777;28;20081;-71
2021/07/08 14:09:25;;;;;;;;;;;22.80;99.90;;;;;;5100688;28;19967;-71
2021/07/08 14:11:52;;;;;;;;;;;22.80;99.90;;;;;;5077413;28;19963;-71
2021/07/08 14:14:19;;;;;;;;;;;22.80;99.90;;;;;;5098457;28;19924;-71
2021/07/08 14:16:47;;;;;;;;;;;22.80;99.90;;;;;;5070099;28;20375;-71
2021/07/08 14:19:14;;;;;;;;;;;22.90;99.90;;;;;;5105637;28;19931;-71
2021/07/08 14:21:42;;;;;;;;;;;22.90;99.90;;;;;;5077326;28;19924;-72
2021/07/08 14:24:08;;;;;;;;;;;22.90;99.90;;;;;;5061779;28;19982;-71
2021/07/08 14:26:35;;;;;;;;;;;22.90;99.90;;;;;;5071880;28;19990;-71
2021/07/08 14:29:02;;;;;;;;;;;23.00;99.90;;;;;;5077528;28;19974;-71